createdAt,value
2023-04-23T00:01:30.125Z,58.37
2023-04-23T00:03:56.936Z,57.84
2023-04-23T00:06:23.574Z,58.30
2023-04-23T00:08:50.193Z,58.08
2023-04-23T00:11:17.095Z,57.79
2023-04-23T00:13:43.916Z,58.59
2023-04-23T00:16:10.517Z,59.23
2023-04-23T00:18:37.111Z,59.25
2023-04-23T00:21:03.758Z,59.07
2023-04-23T00:23:30.486Z,59.31
2023-04-23T00:25:57.279Z,59.06
2023-04-23T00:28:24.083Z,59.23
2023-04-23T00:30:50.823Z,59.59
2023-04-23T00:33:17.479Z,59.02
2023-04-23T00:35:44.060Z,58.52
2023-04-23T00:38:10.626Z,58.85
2023-04-23T00:40:37.212Z,58.77
2023-04-23T00:43:06.298Z,59.92
2023-04-23T00:45:32.929Z,59.48
2023-04-23T00:47:59.706Z,59.00
2023-04-23T00:50:26.432Z,58.74
2023-04-23T00:52:53.050Z,58.44
2023-04-23T00:55:19.774Z,58.52
2023-04-23T00:57:46.691Z,59.03
2023-04-23T01:00:13.244Z,58.86
2023-04-23T01:02:39.989Z,58.80
2023-04-23T01:05:06.686Z,59.07
2023-04-23T01:07:33.427Z,58.78
2023-04-23T01:10:00.009Z,58.80
2023-04-23T01:12:26.597Z,58.93
2023-04-23T01:14:53.187Z,59.26
2023-04-23T01:17:19.867Z,58.68
2023-04-23T01:19:46.527Z,59.35
2023-04-23T01:22:13.189Z,58.96
2023-04-23T01:24:39.996Z,59.21
2023-04-23T01:27:06.871Z,59.01
2023-04-23T01:29:33.566Z,59.30
2023-04-23T01:32:00.260Z,59.28
2023-04-23T01:34:26.974Z,59.71
2023-04-23T01:36:53.568Z,59.42
2023-04-23T01:39:20.330Z,59.10
2023-04-23T01:41:46.908Z,59.12
2023-04-23T01:44:13.686Z,59.28
2023-04-23T01:46:40.417Z,60.27
2023-04-23T01:49:07.053Z,59.75
2023-04-23T01:51:33.667Z,60.49
2023-04-23T01:54:00.418Z,59.92
2023-04-23T01:56:27.064Z,60.22
2023-04-23T01:58:53.634Z,59.85
2023-04-23T02:01:20.244Z,60.47
2023-04-23T02:03:47.119Z,60.37
2023-04-23T02:06:13.874Z,60.07
2023-04-23T02:08:40.455Z,59.49
2023-04-23T02:11:07.091Z,60.45
2023-04-23T02:13:33.768Z,60.49
2023-04-23T02:16:00.547Z,59.90
2023-04-23T02:18:27.144Z,59.89
2023-04-23T02:20:53.822Z,59.79
2023-04-23T02:23:20.490Z,59.67
2023-04-23T02:25:47.076Z,59.71
2023-04-23T02:28:13.675Z,59.78
2023-04-23T02:30:40.312Z,60.16
2023-04-23T02:33:07.122Z,60.54
2023-04-23T02:35:33.736Z,60.29
2023-04-23T02:38:00.308Z,60.89
2023-04-23T02:40:27.146Z,60.83
2023-04-23T02:42:53.759Z,61.11
2023-04-23T02:45:20.397Z,60.77
2023-04-23T02:47:47.101Z,61.19
2023-04-23T02:50:13.749Z,60.76
2023-04-23T02:52:40.435Z,61.15
2023-04-23T02:55:07.024Z,61.19
2023-04-23T02:57:33.788Z,61.15
2023-04-23T03:02:44.482Z,61.35
2023-04-23T03:05:11.161Z,60.71
2023-04-23T03:07:37.780Z,61.20
2023-04-23T03:10:04.394Z,60.52
2023-04-23T03:12:30.961Z,60.75
2023-04-23T03:14:57.873Z,60.81
2023-04-23T03:17:24.498Z,60.63
2023-04-23T03:19:51.115Z,60.63
2023-04-23T03:22:17.737Z,60.76
2023-04-23T03:24:44.418Z,60.64
2023-04-23T03:27:11.107Z,60.25
2023-04-23T03:29:37.682Z,60.60
2023-04-23T03:32:04.285Z,61.28
2023-04-23T03:34:30.867Z,61.36
2023-04-23T03:36:57.968Z,61.34
2023-04-23T03:39:24.603Z,60.88
2023-04-23T03:41:51.173Z,61.38
2023-04-23T03:44:17.801Z,61.68
2023-04-23T03:46:44.499Z,61.13
2023-04-23T03:49:11.116Z,61.75
2023-04-23T03:51:37.772Z,61.82
2023-04-23T03:54:04.412Z,61.57
2023-04-23T03:56:31.152Z,61.86
2023-04-23T03:58:57.762Z,61.59
2023-04-23T04:01:24.502Z,61.49
2023-04-23T04:03:51.351Z,61.11
2023-04-23T04:06:18.171Z,62.25
2023-04-23T04:08:44.850Z,61.36
2023-04-23T04:11:11.564Z,61.61
2023-04-23T04:13:38.161Z,62.00
2023-04-23T04:16:04.814Z,61.98
2023-04-23T04:18:31.591Z,61.92
2023-04-23T04:20:58.202Z,61.52
2023-04-23T04:23:24.770Z,62.01
2023-04-23T04:25:51.359Z,62.15
2023-04-23T04:28:17.946Z,61.70
2023-04-23T04:30:44.507Z,61.52
2023-04-23T04:33:11.104Z,61.74
2023-04-23T04:35:39.845Z,61.20
2023-04-23T04:38:06.437Z,61.54
2023-04-23T04:40:32.989Z,61.04
2023-04-23T04:42:59.638Z,61.47
2023-04-23T04:45:26.210Z,61.19
2023-04-23T04:47:52.907Z,61.43
2023-04-23T04:50:19.561Z,61.01
2023-04-23T04:52:46.170Z,60.70
2023-04-23T04:55:12.918Z,60.13
2023-04-23T04:57:39.478Z,60.38
2023-04-23T05:00:06.114Z,59.88
2023-04-23T05:02:32.804Z,60.62
2023-04-23T05:04:59.490Z,60.57
2023-04-23T05:07:26.197Z,60.34
2023-04-23T05:09:52.801Z,60.30
2023-04-23T05:12:19.426Z,60.49
2023-04-23T05:14:46.006Z,60.08
2023-04-23T05:17:12.590Z,59.80
2023-04-23T05:19:39.473Z,59.19
2023-04-23T05:22:07.157Z,59.12
2023-04-23T05:24:33.728Z,58.38
2023-04-23T05:27:00.340Z,57.85
2023-04-23T05:29:27.049Z,57.81
2023-04-23T05:31:53.733Z,57.91
2023-04-23T05:34:20.349Z,57.81
2023-04-23T05:36:46.966Z,57.37
2023-04-23T05:39:13.555Z,56.70
2023-04-23T05:41:40.197Z,56.20
2023-04-23T05:44:06.782Z,56.38
2023-04-23T05:46:33.444Z,55.75
2023-04-23T05:49:00.170Z,55.24
2023-04-23T05:51:26.817Z,55.02
2023-04-23T05:53:53.530Z,55.10
2023-04-23T05:56:20.142Z,54.30
2023-04-23T05:58:46.866Z,54.28
2023-04-23T06:01:13.440Z,53.69
2023-04-23T06:03:40.248Z,52.95
2023-04-23T06:06:06.984Z,52.84
2023-04-23T06:08:33.555Z,52.18
2023-04-23T06:11:00.189Z,51.57
2023-04-23T06:13:26.814Z,51.90
2023-04-23T06:15:53.694Z,51.30
2023-04-23T06:18:20.318Z,51.33
2023-04-23T06:20:46.876Z,51.39
2023-04-23T06:23:15.612Z,51.33
2023-04-23T06:25:42.197Z,50.30
2023-04-23T06:28:08.837Z,50.48
2023-04-23T06:30:35.430Z,52.87
2023-04-23T06:33:02.065Z,51.02
2023-04-23T06:35:28.739Z,50.17
2023-04-23T06:37:55.367Z,49.36
2023-04-23T06:40:21.940Z,49.92
2023-04-23T06:42:48.677Z,49.59
2023-04-23T06:45:15.304Z,49.29
2023-04-23T06:47:42.002Z,48.92
2023-04-23T06:50:08.801Z,49.19
2023-04-23T06:52:35.401Z,49.19
2023-04-23T06:55:01.987Z,49.68
2023-04-23T06:57:28.563Z,48.10
2023-04-23T06:59:55.130Z,48.13
2023-04-23T07:02:21.765Z,46.91
2023-04-23T07:04:48.417Z,47.02
2023-04-23T07:07:15.047Z,45.10
2023-04-23T07:09:41.602Z,46.13
2023-04-23T07:12:08.183Z,47.23
2023-04-23T07:14:34.882Z,46.09
2023-04-23T07:17:01.668Z,44.90
2023-04-23T07:19:29.244Z,45.17
2023-04-23T07:21:55.800Z,43.61
2023-04-23T07:24:22.395Z,43.85
2023-04-23T07:26:48.988Z,45.34
2023-04-23T07:29:15.766Z,44.08
2023-04-23T07:31:42.365Z,42.49
2023-04-23T07:34:09.000Z,41.83
2023-04-23T07:36:35.571Z,42.97
2023-04-23T07:39:02.166Z,42.57
2023-04-23T07:41:28.744Z,42.55
2023-04-23T07:43:55.300Z,44.26
2023-04-23T07:46:22.119Z,43.20
2023-04-23T07:48:48.875Z,42.71
2023-04-23T07:51:15.464Z,42.48
2023-04-23T07:53:42.079Z,42.52
2023-04-23T07:56:08.661Z,41.79
2023-04-23T07:58:35.358Z,43.05
2023-04-23T08:01:01.978Z,41.67
2023-04-23T08:03:28.938Z,42.53
2023-04-23T08:05:55.733Z,42.74
2023-04-23T08:08:22.346Z,41.98
2023-04-23T08:10:48.937Z,41.69
2023-04-23T08:13:15.542Z,41.86
2023-04-23T08:15:42.220Z,41.38
2023-04-23T08:18:08.886Z,40.61
2023-04-23T08:20:35.622Z,40.61
2023-04-23T08:23:02.252Z,42.15
2023-04-23T08:25:28.825Z,43.67
2023-04-23T08:27:57.977Z,43.85
2023-04-23T08:30:24.567Z,42.08
2023-04-23T08:32:51.465Z,41.31
2023-04-23T08:35:18.135Z,41.34
2023-04-23T08:37:44.732Z,41.94
2023-04-23T08:40:11.323Z,41.29
2023-04-23T08:42:37.913Z,40.66
2023-04-23T08:45:04.516Z,41.44
2023-04-23T08:47:31.165Z,40.43
2023-04-23T08:49:57.746Z,40.12
2023-04-23T08:52:24.355Z,40.06
2023-04-23T08:54:50.927Z,39.64
2023-04-23T08:57:17.558Z,39.83
2023-04-23T08:59:44.383Z,39.87
2023-04-23T09:02:11.214Z,39.21
2023-04-23T09:04:37.866Z,39.16
2023-04-23T09:07:04.462Z,40.11
2023-04-23T09:09:31.046Z,39.08
2023-04-23T09:11:57.647Z,39.19
2023-04-23T09:14:24.333Z,38.64
2023-04-23T09:16:51.014Z,39.46
2023-04-23T09:19:17.638Z,39.22
2023-04-23T09:21:44.219Z,38.83
2023-04-23T09:24:10.951Z,38.50
2023-04-23T09:26:37.561Z,40.08
2023-04-23T09:29:04.190Z,39.88
2023-04-23T09:31:30.855Z,40.86
2023-04-23T09:33:57.520Z,41.56
2023-04-23T09:36:24.119Z,40.28
2023-04-23T09:38:50.733Z,38.86
2023-04-23T09:41:17.346Z,39.29
2023-04-23T09:43:43.917Z,39.04
2023-04-23T09:46:10.548Z,38.37
2023-04-23T09:48:37.263Z,40.24
2023-04-23T09:51:03.862Z,38.49
2023-04-23T09:53:30.424Z,38.87
2023-04-23T09:55:57.257Z,38.27
2023-04-23T09:58:23.832Z,36.12
2023-04-23T10:00:50.769Z,35.33
2023-04-23T10:03:17.464Z,35.70
2023-04-23T10:08:14.229Z,35.14
2023-04-23T10:10:56.838Z,35.44
2023-04-23T10:13:27.440Z,35.74
2023-04-23T10:15:54.178Z,34.70
2023-04-23T10:18:20.814Z,34.67
2023-04-23T10:20:49.587Z,35.11
2023-04-23T10:23:16.224Z,34.09
2023-04-23T10:25:42.798Z,33.63
2023-04-23T10:28:09.724Z,34.45
2023-04-23T10:30:36.336Z,34.01
2023-04-23T10:33:03.051Z,34.91
2023-04-23T10:35:29.706Z,33.23
2023-04-23T10:37:56.294Z,33.59
2023-04-23T10:40:22.904Z,33.57
2023-04-23T10:42:49.481Z,35.30
2023-04-23T10:45:23.373Z,35.90
2023-04-23T10:47:54.132Z,37.59
2023-04-23T10:50:20.816Z,38.73
2023-04-23T10:52:47.399Z,38.68
2023-04-23T10:55:14.019Z,36.70
2023-04-23T10:57:40.604Z,35.18
2023-04-23T11:00:07.206Z,34.00
2023-04-23T11:02:33.916Z,35.82
2023-04-23T11:05:00.786Z,34.75
2023-04-23T11:07:27.489Z,35.12
2023-04-23T11:09:54.169Z,33.78
2023-04-23T11:12:20.815Z,35.27
2023-04-23T11:14:47.378Z,33.92
2023-04-23T11:17:13.974Z,32.20
2023-04-23T11:19:40.817Z,31.46
2023-04-23T11:22:07.551Z,32.24
2023-04-23T11:24:34.146Z,32.62
2023-04-23T11:27:00.764Z,31.92
2023-04-23T11:29:27.686Z,32.56
2023-04-23T11:32:02.617Z,32.39
2023-04-23T11:34:30.408Z,32.96
2023-04-23T11:36:57.348Z,33.02
2023-04-23T11:39:23.917Z,32.86
2023-04-23T11:41:50.499Z,33.18
2023-04-23T11:44:17.084Z,33.09
2023-04-23T11:46:43.661Z,33.45
2023-04-23T11:49:10.286Z,32.57
2023-04-23T11:51:37.211Z,32.22
2023-04-23T11:54:03.778Z,32.73
2023-04-23T11:56:30.683Z,32.58
2023-04-23T11:58:57.234Z,32.92
2023-04-23T12:01:23.794Z,32.78
2023-04-23T12:03:50.542Z,33.51
2023-04-23T12:06:17.196Z,34.08
2023-04-23T12:08:43.779Z,35.52
2023-04-23T12:11:10.630Z,37.08
2023-04-23T12:13:37.409Z,35.50
2023-04-23T12:16:04.064Z,35.83
2023-04-23T12:18:30.664Z,35.48
2023-04-23T12:20:57.266Z,34.54
2023-04-23T12:23:23.831Z,34.64
2023-04-23T12:25:50.425Z,33.46
2023-04-23T12:28:17.039Z,34.53
2023-04-23T12:30:43.657Z,34.23
2023-04-23T12:33:10.247Z,32.66
2023-04-23T12:35:36.831Z,34.60
2023-04-23T12:38:03.459Z,34.00
2023-04-23T12:40:30.112Z,34.30
2023-04-23T12:42:56.735Z,33.68
2023-04-23T12:45:23.380Z,35.03
2023-04-23T12:47:49.986Z,33.43
2023-04-23T12:50:16.640Z,33.58
2023-04-23T12:52:43.223Z,33.32
2023-04-23T12:55:10.136Z,34.25
2023-04-23T12:57:36.709Z,32.31
2023-04-23T13:00:03.284Z,33.26
2023-04-23T13:02:30.114Z,34.59
2023-04-23T13:04:56.839Z,33.69
2023-04-23T13:07:23.468Z,34.79
2023-04-23T13:09:50.124Z,33.91
2023-04-23T13:12:16.727Z,33.49
2023-04-23T13:14:43.294Z,32.75
2023-04-23T13:17:09.887Z,31.59
2023-04-23T13:19:36.445Z,32.00
2023-04-23T13:22:03.083Z,32.03
2023-04-23T13:24:29.663Z,33.70
2023-04-23T13:26:56.273Z,33.59
2023-04-23T13:29:22.919Z,33.54
2023-04-23T13:31:49.615Z,33.94
2023-04-23T13:34:16.199Z,32.78
2023-04-23T13:36:42.910Z,31.70
2023-04-23T13:39:09.497Z,33.55
2023-04-23T13:41:36.087Z,35.50
2023-04-23T13:44:02.671Z,35.04
2023-04-23T13:46:29.270Z,36.02
2023-04-23T13:48:55.907Z,34.93
2023-04-23T13:51:34.665Z,37.55
2023-04-23T13:54:02.247Z,36.42
2023-04-23T13:56:28.870Z,37.07
2023-04-23T13:58:56.553Z,36.00
2023-04-23T14:01:31.741Z,34.43
2023-04-23T14:03:58.392Z,34.72
2023-04-23T14:06:25.170Z,35.22
2023-04-23T14:08:51.742Z,35.69
2023-04-23T14:11:18.342Z,34.39
2023-04-23T14:13:44.933Z,35.32
2023-04-23T14:16:11.564Z,35.18
2023-04-23T14:18:38.136Z,35.28
2023-04-23T14:21:04.695Z,33.65
2023-04-23T14:23:31.312Z,34.92
2023-04-23T14:25:57.898Z,34.79
2023-04-23T14:28:24.506Z,35.15
2023-04-23T14:30:51.092Z,33.96
2023-04-23T14:33:17.732Z,33.58
2023-04-23T14:35:44.457Z,34.25
2023-04-23T14:38:11.220Z,34.78
2023-04-23T14:40:37.849Z,37.05
2023-04-23T14:43:15.139Z,37.97
2023-04-23T14:45:42.310Z,39.57
2023-04-23T14:48:08.893Z,39.25
2023-04-23T14:50:35.497Z,38.50
2023-04-23T14:53:02.091Z,38.94
2023-04-23T14:55:28.697Z,38.55
2023-04-23T14:57:55.634Z,38.73
2023-04-23T15:00:22.243Z,38.49
2023-04-23T15:02:48.936Z,39.72
2023-04-23T15:05:15.586Z,38.90
2023-04-23T15:07:42.181Z,39.51
2023-04-23T15:10:08.775Z,40.98
2023-04-23T15:12:35.605Z,41.02
2023-04-23T15:15:03.266Z,41.28
2023-04-23T15:17:29.878Z,41.36
2023-04-23T15:19:56.496Z,42.03
2023-04-23T15:22:23.138Z,41.29
2023-04-23T15:24:49.708Z,42.64
2023-04-23T15:27:16.337Z,42.86
2023-04-23T15:29:43.080Z,42.06
2023-04-23T15:32:10.664Z,42.21
2023-04-23T15:34:37.384Z,43.25
2023-04-23T15:37:03.998Z,43.83
2023-04-23T15:39:30.613Z,44.11
2023-04-23T15:41:57.246Z,43.85
2023-04-23T15:44:23.842Z,43.46
2023-04-23T15:46:50.399Z,44.47
2023-04-23T15:49:17.000Z,44.52
2023-04-23T15:51:43.648Z,44.19
2023-04-23T15:54:10.215Z,43.50
2023-04-23T15:56:36.855Z,43.22
2023-04-23T15:59:03.480Z,43.28
2023-04-23T16:01:30.181Z,43.71
2023-04-23T16:04:08.638Z,42.99
2023-04-23T16:06:36.694Z,42.65
2023-04-23T16:09:03.287Z,41.97
2023-04-23T16:11:29.891Z,41.96
2023-04-23T16:13:56.462Z,41.44
2023-04-23T16:16:23.077Z,44.74
2023-04-23T16:18:49.672Z,47.32
2023-04-23T16:21:16.237Z,47.57
2023-04-23T16:23:42.828Z,51.30
2023-04-23T16:26:09.386Z,54.78
2023-04-23T16:28:35.976Z,53.05
2023-04-23T16:31:03.047Z,53.66
2023-04-23T16:33:29.698Z,53.75
2023-04-23T16:35:56.406Z,52.54
2023-04-23T16:38:22.970Z,53.15
2023-04-23T16:40:49.556Z,53.22
2023-04-23T16:43:16.341Z,52.24
2023-04-23T16:45:43.799Z,51.11
2023-04-23T16:48:10.411Z,50.36
2023-04-23T16:50:37.047Z,49.93
2023-04-23T16:53:04.907Z,53.59
2023-04-23T16:55:31.603Z,56.32
2023-04-23T16:57:58.244Z,58.39
2023-04-23T17:00:24.937Z,58.97
2023-04-23T17:02:51.615Z,60.09
2023-04-23T17:05:18.381Z,60.85
2023-04-23T17:07:45.103Z,61.98
2023-04-23T17:10:11.775Z,61.26
2023-04-23T17:12:38.421Z,61.22
2023-04-23T17:15:05.365Z,62.93
2023-04-23T17:17:32.056Z,64.56
2023-04-23T17:19:58.823Z,63.82
2023-04-23T17:22:25.432Z,63.16
2023-04-23T17:24:52.061Z,62.22
2023-04-23T17:27:18.786Z,61.31
2023-04-23T17:29:45.387Z,61.42
2023-04-23T17:32:11.988Z,61.66
2023-04-23T17:34:38.662Z,61.81
2023-04-23T17:37:05.298Z,61.48
2023-04-23T17:39:31.917Z,62.28
2023-04-23T17:41:58.560Z,61.93
2023-04-23T17:44:25.235Z,62.00
2023-04-23T17:46:52.011Z,61.26
2023-04-23T17:49:18.603Z,61.26
2023-04-23T17:51:45.201Z,61.81
2023-04-23T17:54:11.780Z,61.81
2023-04-23T17:56:38.448Z,62.05
2023-04-23T17:59:05.050Z,62.77
2023-04-23T18:01:32.584Z,63.20
2023-04-23T18:03:59.377Z,62.83
2023-04-23T18:06:26.094Z,62.30
2023-04-23T18:08:52.744Z,62.36
2023-04-23T18:11:19.644Z,62.35
2023-04-23T18:13:46.364Z,61.92
2023-04-23T18:16:12.983Z,62.70
2023-04-23T18:18:39.930Z,62.23
2023-04-23T18:21:06.500Z,62.28
2023-04-23T18:23:33.270Z,63.04
2023-04-23T18:25:59.853Z,62.59
2023-04-23T18:28:26.506Z,63.22
2023-04-23T18:30:53.154Z,62.58
2023-04-23T18:33:19.859Z,61.94
2023-04-23T18:35:46.527Z,62.17
2023-04-23T18:38:13.123Z,62.12
2023-04-23T18:40:39.711Z,63.62
2023-04-23T18:43:06.283Z,63.17
2023-04-23T18:45:32.911Z,61.87
2023-04-23T18:47:59.526Z,63.11
2023-04-23T18:50:26.150Z,63.12
2023-04-23T18:52:52.726Z,61.99
2023-04-23T18:55:19.718Z,61.58
2023-04-23T18:57:46.277Z,62.33
2023-04-23T19:00:12.896Z,61.75
2023-04-23T19:02:39.513Z,61.93
2023-04-23T19:05:08.378Z,63.26
2023-04-23T19:07:35.077Z,62.44
2023-04-23T19:10:01.704Z,62.67
2023-04-23T19:12:28.457Z,62.72
2023-04-23T19:14:55.052Z,62.15
2023-04-23T19:17:21.638Z,62.40
2023-04-23T19:19:48.310Z,62.86
2023-04-23T19:22:14.869Z,63.46
2023-04-23T19:24:41.682Z,64.12
2023-04-23T19:27:08.282Z,64.83
2023-04-23T19:29:34.917Z,64.27
2023-04-23T19:32:01.510Z,65.40
2023-04-23T19:34:28.204Z,65.06
2023-04-23T19:36:57.963Z,65.86
2023-04-23T19:39:24.528Z,66.14
2023-04-23T19:41:51.126Z,65.61
2023-04-23T19:44:17.724Z,64.89
2023-04-23T19:46:44.384Z,64.58
2023-04-23T19:49:10.999Z,65.23
2023-04-23T19:51:37.586Z,64.58
2023-04-23T19:54:04.208Z,64.94
2023-04-23T19:56:30.791Z,65.54
2023-04-23T19:58:57.372Z,65.38
2023-04-23T20:01:24.104Z,64.83
2023-04-23T20:03:51.067Z,65.14
2023-04-23T20:06:17.931Z,64.20
2023-04-23T20:08:44.634Z,63.68
2023-04-23T20:11:11.259Z,63.47
2023-04-23T20:13:37.839Z,64.59
2023-04-23T20:16:04.665Z,65.01
2023-04-23T20:18:31.258Z,64.03
2023-04-23T20:20:57.857Z,63.85
2023-04-23T20:23:24.442Z,64.09
2023-04-23T20:25:51.017Z,64.20
2023-04-23T20:28:17.644Z,63.89
2023-04-23T20:30:44.483Z,64.10
2023-04-23T20:33:11.060Z,63.66
2023-04-23T20:35:37.775Z,63.95
2023-04-23T20:38:04.424Z,63.75
2023-04-23T20:40:31.011Z,63.89
2023-04-23T20:42:57.609Z,65.25
2023-04-23T20:45:24.185Z,64.33
2023-04-23T20:47:50.810Z,63.59
2023-04-23T20:50:17.437Z,63.49
2023-04-23T20:52:44.045Z,64.58
2023-04-23T20:55:11.677Z,65.11
2023-04-23T20:57:38.274Z,65.76
2023-04-23T21:00:04.883Z,65.05
2023-04-23T21:02:31.827Z,65.36
2023-04-23T21:04:58.445Z,64.52
2023-04-23T21:07:25.056Z,64.74
2023-04-23T21:09:51.634Z,65.30
2023-04-23T21:12:18.203Z,65.02
2023-04-23T21:14:44.856Z,66.13
2023-04-23T21:17:11.436Z,66.18
2023-04-23T21:19:38.013Z,65.49
2023-04-23T21:22:04.650Z,66.06
2023-04-23T21:24:31.223Z,66.04
2023-04-23T21:26:57.847Z,65.26
2023-04-23T21:29:24.415Z,66.18
2023-04-23T21:31:51.124Z,66.52
2023-04-23T21:34:17.769Z,65.18
2023-04-23T21:36:44.362Z,65.32
2023-04-23T21:39:12.820Z,65.53
2023-04-23T21:41:39.676Z,66.16
2023-04-23T21:44:06.299Z,65.91
2023-04-23T21:46:32.909Z,65.78
2023-04-23T21:48:59.530Z,65.58
2023-04-23T21:51:26.095Z,65.11
2023-04-23T21:53:52.667Z,65.17
2023-04-23T21:56:19.425Z,65.42
2023-04-23T21:58:46.014Z,64.29
2023-04-23T22:01:12.661Z,64.97
2023-04-23T22:03:39.605Z,64.75
2023-04-23T22:06:06.319Z,64.81
2023-04-23T22:08:32.977Z,65.46
2023-04-23T22:10:59.666Z,64.52
2023-04-23T22:13:26.299Z,64.88
2023-04-23T22:15:52.857Z,64.44
2023-04-23T22:18:19.580Z,65.00
2023-04-23T22:20:46.239Z,65.17
2023-04-23T22:23:12.890Z,64.72
2023-04-23T22:25:39.469Z,65.49
2023-04-23T22:28:06.623Z,65.89
2023-04-23T22:30:33.221Z,65.47
2023-04-23T22:32:59.877Z,65.58
2023-04-23T22:35:26.577Z,65.74
2023-04-23T22:37:53.279Z,65.26
2023-04-23T22:40:19.878Z,65.00
2023-04-23T22:42:46.464Z,65.42
2023-04-23T22:45:13.039Z,66.53
2023-04-23T22:47:39.631Z,66.50
2023-04-23T22:50:06.651Z,66.41
2023-04-23T22:52:33.271Z,66.24
2023-04-23T22:55:02.172Z,66.97
2023-04-23T22:57:29.078Z,66.29
2023-04-23T22:59:55.686Z,66.81
2023-04-23T23:02:22.433Z,66.65
2023-04-23T23:04:49.112Z,66.37
2023-04-23T23:07:15.725Z,66.28
2023-04-23T23:09:42.474Z,66.20
2023-04-23T23:12:09.287Z,66.40
2023-04-23T23:14:35.868Z,66.28
2023-04-23T23:17:02.611Z,66.34
2023-04-23T23:19:29.511Z,66.00
2023-04-23T23:21:57.111Z,65.61
2023-04-23T23:24:23.782Z,65.48
2023-04-23T23:26:50.435Z,65.31
2023-04-23T23:29:17.037Z,65.51
2023-04-23T23:31:43.754Z,65.21
2023-04-23T23:34:10.425Z,65.32
2023-04-23T23:36:37.073Z,64.87
2023-04-23T23:39:03.667Z,64.95
2023-04-23T23:41:30.248Z,65.69
2023-04-23T23:43:56.936Z,65.87
2023-04-23T23:46:23.579Z,65.73
2023-04-23T23:48:50.189Z,66.12
2023-04-23T23:51:16.829Z,65.56
2023-04-23T23:53:43.406Z,66.99
2023-04-23T23:56:10.021Z,67.52
2023-04-23T23:58:36.599Z,67.29
